Brighton, United Kingdom
Current Conditions -  °F | °C
As of 8:20 AM on Monday 22 Dec 2014 (Local Time) from EGKA Reporting Station
Haze Haze  
Wind Chill: 54°   Ceiling: 1200
Heat Index: 54°   Visibility: 3mi
Dew Point: 52°   Wind: 24mph
Humidity: 94%   Direction: 240°WSW
Pressure: 30.12"   Gusts: 36mph
Location:  50.83°N, 0.17°W
Report Text: EGKA 220820Z 24021G31KT 5000 BR SCT007 BKN012 12/11 Q1020
Loading
Personal Weather Stations






























Interactive Weather Map New forecast layout! Learn more

10-Day Weather Forecast

Advertisements
Track Severe Weather on mobile